createdAt,value
2019-04-26T09:35:30.009Z,23.81
2019-04-26T09:38:20.750Z,24.89
2019-04-26T09:41:15.054Z,25.73
2019-04-26T09:44:14.156Z,26.06
2019-04-26T09:47:30.189Z,25.77
2019-04-26T09:50:38.437Z,26.08
2019-04-26T09:53:29.050Z,25.36
2019-04-26T09:56:19.925Z,25.39
2019-04-26T09:59:10.640Z,25.72
2019-04-26T10:02:01.542Z,25.52
2019-04-26T10:04:52.592Z,25.87
2019-04-26T10:07:43.440Z,25.90
2019-04-26T10:10:35.396Z,25.09
2019-04-26T10:13:51.402Z,25.16
2019-04-26T10:16:48.972Z,25.31
2019-04-26T10:19:50.380Z,24.59
2019-04-26T10:22:40.700Z,24.37
2019-04-26T10:25:30.878Z,24.26
2019-04-26T10:28:22.670Z,24.16
2019-04-26T10:31:13.558Z,23.91
2019-04-26T10:34:07.645Z,23.56
2019-04-26T10:36:57.071Z,23.40
2019-04-26T10:39:47.711Z,23.40
2019-04-26T10:42:38.305Z,22.89
2019-04-26T10:45:28.877Z,22.98
2019-04-26T10:48:23.104Z,23.10
2019-04-26T10:51:14.177Z,23.42
2019-04-26T10:54:10.939Z,23.46
2019-04-26T10:57:06.331Z,23.52
2019-04-26T10:59:59.701Z,23.61
2019-04-26T11:02:52.171Z,23.85
2019-04-26T11:05:42.524Z,23.92
2019-04-26T11:08:33.176Z,23.82
2019-04-26T11:11:23.178Z,23.67
2019-04-26T11:14:13.548Z,23.64
2019-04-26T11:17:04.708Z,23.87
2019-04-26T11:19:55.468Z,23.99
2019-04-26T11:22:46.328Z,24.07
2019-04-26T11:28:26.088Z,23.98
2019-04-26T11:31:16.158Z,24.00
2019-04-26T11:34:07.971Z,23.86
2019-04-26T11:36:59.086Z,23.87
2019-04-26T11:39:49.140Z,23.87
2019-04-26T11:42:41.909Z,23.78
2019-04-26T11:45:32.034Z,23.81
2019-04-26T11:48:25.395Z,23.70
2019-04-26T11:51:14.119Z,23.75
2019-04-26T11:54:04.149Z,23.44
2019-04-26T11:56:54.436Z,23.63
2019-04-26T11:59:44.754Z,23.65
2019-04-26T12:02:38.733Z,23.64
2019-04-26T12:05:36.415Z,23.47
2019-04-26T12:08:32.972Z,23.44
2019-04-26T12:11:31.371Z,23.46
2019-04-26T12:14:20.298Z,23.26
2019-04-26T12:17:07.435Z,23.26
2019-04-26T12:19:57.435Z,23.31
2019-04-26T12:22:47.551Z,23.25
2019-04-26T12:25:38.734Z,23.03
2019-04-26T12:28:29.273Z,22.94
2019-04-26T12:31:19.381Z,23.05
2019-04-26T12:34:09.720Z,23.09
2019-04-26T12:36:59.884Z,23.10
2019-04-26T12:39:50.312Z,23.16
2019-04-26T12:42:43.452Z,23.26
2019-04-26T12:45:51.528Z,23.09
2019-04-26T12:48:45.992Z,23.10
2019-04-26T12:51:34.602Z,22.98
2019-04-26T12:54:24.907Z,23.04
2019-04-26T12:57:16.359Z,22.96
2019-04-26T13:00:07.109Z,22.84
2019-04-26T13:03:01.253Z,22.82
2019-04-26T13:05:57.656Z,22.82
2019-04-26T13:08:43.422Z,23.01
2019-04-26T13:11:56.428Z,22.94
2019-04-26T13:14:58.117Z,22.92
2019-04-26T13:17:52.913Z,22.90
2019-04-26T13:20:42.947Z,22.94
2019-04-26T13:23:33.208Z,22.88
2019-04-26T13:26:23.709Z,22.70
2019-04-26T13:29:15.060Z,22.57
2019-04-26T13:32:05.380Z,22.58
2019-04-26T13:34:55.575Z,22.55
2019-04-26T13:37:45.921Z,22.52
2019-04-26T13:40:36.114Z,22.60
2019-04-26T13:43:28.468Z,22.58
2019-04-26T13:46:38.273Z,22.51
2019-04-26T13:49:41.945Z,22.53
2019-04-26T13:52:32.050Z,22.49
2019-04-26T13:55:25.346Z,22.54
2019-04-26T13:58:15.323Z,22.52
2019-04-26T14:01:06.313Z,22.31
2019-04-26T14:03:56.735Z,22.51
2019-04-26T14:06:47.478Z,22.60
2019-04-26T14:09:37.841Z,22.73
2019-04-26T14:12:28.882Z,22.79
2019-04-26T14:15:19.201Z,22.80
2019-04-26T14:18:09.413Z,22.94
2019-04-26T14:21:00.181Z,22.85
2019-04-26T14:24:08.713Z,22.83
2019-04-26T14:27:01.667Z,22.89
2019-04-26T14:29:51.741Z,22.91
2019-04-26T14:32:42.692Z,22.81
2019-04-26T14:35:33.234Z,22.86
2019-04-26T14:38:28.003Z,22.87
2019-04-26T14:41:22.005Z,22.94
2019-04-26T14:44:15.470Z,22.99
2019-04-26T14:46:58.705Z,23.16
2019-04-26T14:49:48.952Z,23.08
2019-04-26T14:52:39.594Z,23.06
2019-04-26T14:55:30.065Z,23.16
2019-04-26T14:58:25.378Z,23.21
2019-04-26T15:01:19.517Z,23.15
2019-04-26T15:04:29.153Z,23.00
2019-04-26T15:07:19.266Z,23.11
2019-04-26T15:10:10.947Z,23.09
2019-04-26T15:13:14.332Z,22.97
2019-04-26T15:15:53.731Z,23.03
2019-04-26T15:18:43.906Z,22.98
2019-04-26T15:21:34.565Z,22.91
2019-04-26T15:24:25.964Z,22.97
2019-04-26T15:27:16.371Z,22.93
2019-04-26T15:30:06.904Z,22.91
2019-04-26T15:32:57.305Z,22.94
2019-04-26T15:35:48.803Z,22.82
2019-04-26T15:38:44.324Z,22.78
2019-04-26T15:41:54.565Z,22.57
2019-04-26T15:45:06.806Z,22.57
2019-04-26T15:48:16.171Z,22.54
2019-04-26T15:51:07.110Z,22.57
2019-04-26T15:53:57.415Z,22.53
2019-04-26T15:56:49.283Z,22.41
2019-04-26T15:59:39.565Z,22.44
2019-04-26T16:02:29.744Z,22.57
2019-04-26T16:05:24.361Z,22.68
2019-04-26T16:08:13.070Z,22.46
2019-04-26T16:11:03.594Z,22.45
2019-04-26T16:13:55.638Z,22.29
2019-04-26T16:16:45.944Z,22.15
2019-04-26T16:19:36.471Z,21.93
2019-04-26T16:22:29.999Z,21.90
2019-04-26T16:25:19.081Z,21.91
2019-04-26T16:28:27.191Z,21.71
2019-04-26T16:31:42.203Z,21.61
2019-04-26T16:34:30.122Z,21.48
2019-04-26T16:37:22.027Z,21.42
2019-04-26T16:40:13.886Z,21.42
2019-04-26T16:43:04.284Z,21.39
2019-04-26T16:45:54.651Z,21.28
2019-04-26T16:48:44.973Z,21.35
2019-04-26T16:51:35.468Z,21.52
2019-04-26T16:54:26.726Z,21.55
2019-04-26T16:57:16.934Z,21.45
2019-04-26T17:00:07.093Z,21.32
2019-04-26T17:03:02.499Z,21.15
2019-04-26T17:05:58.383Z,21.04
2019-04-26T17:08:49.244Z,21.02
2019-04-26T17:11:35.683Z,21.00
2019-04-26T17:14:24.699Z,21.03
2019-04-26T17:17:15.935Z,21.00
2019-04-26T17:20:10.742Z,20.92
2019-04-26T17:23:07.122Z,20.82
2019-04-26T17:26:17.830Z,20.85
2019-04-26T17:29:07.749Z,20.75
2019-04-26T17:31:58.126Z,20.63
2019-04-26T17:34:48.335Z,20.56
2019-04-26T17:37:38.617Z,20.52
2019-04-26T17:40:30.144Z,20.62
2019-04-26T17:43:21.219Z,20.58
2019-04-26T17:46:14.555Z,20.52
2019-04-26T17:49:03.267Z,20.40
2019-04-26T17:51:58.065Z,20.59
2019-04-26T17:54:49.614Z,20.63
2019-04-26T17:57:43.594Z,20.48
2019-04-26T18:00:45.336Z,20.46
2019-04-26T18:03:22.928Z,20.55
2019-04-26T18:06:14.043Z,20.56
2019-04-26T18:09:05.157Z,20.53
2019-04-26T18:12:01.688Z,20.62
2019-04-26T18:14:48.408Z,20.64
2019-04-26T18:17:56.718Z,20.60
2019-04-26T18:21:20.398Z,20.67
2019-04-26T18:24:09.816Z,20.42
2019-04-26T18:27:03.513Z,20.47
2019-04-26T18:29:53.820Z,20.53
2019-04-26T18:32:47.855Z,20.43
2019-04-26T18:35:35.775Z,20.27
2019-04-26T18:38:26.131Z,20.37
2019-04-26T18:41:17.602Z,20.28
2019-04-26T18:44:08.173Z,20.23
2019-04-26T18:47:26.245Z,20.25
2019-04-26T18:50:13.590Z,20.26
2019-04-26T18:53:21.915Z,20.23
2019-04-26T18:56:12.799Z,20.07
2019-04-26T18:59:07.268Z,20.15
2019-04-26T19:01:56.063Z,19.99
2019-04-26T19:04:49.685Z,20.02
2019-04-26T19:07:40.056Z,20.01
2019-04-26T19:10:34.135Z,20.07
2019-04-26T19:13:42.870Z,20.15
2019-04-26T19:16:46.390Z,20.19
2019-04-26T19:19:53.019Z,20.14
2019-04-26T19:22:46.545Z,20.07
2019-04-26T19:25:40.893Z,20.15
2019-04-26T19:28:29.584Z,19.93
2019-04-26T19:31:23.956Z,19.90
2019-04-26T19:34:13.272Z,19.96
2019-04-26T19:37:04.029Z,19.93
2019-04-26T19:39:54.407Z,19.91
2019-04-26T19:42:44.815Z,19.93
2019-04-26T19:45:47.067Z,19.74
2019-04-26T19:48:56.581Z,19.67
2019-04-26T19:52:18.288Z,19.60
2019-04-26T19:55:18.089Z,19.46
2019-04-26T19:58:16.109Z,19.34
2019-04-26T20:01:04.313Z,19.30
2019-04-26T20:03:55.378Z,19.41
2019-04-26T20:06:48.416Z,19.34
2019-04-26T20:09:37.676Z,19.20
2019-04-26T20:12:29.564Z,19.29
2019-04-26T20:15:26.032Z,19.22
2019-04-26T20:18:12.216Z,19.10
2019-04-26T20:21:06.325Z,19.09
2019-04-26T20:23:56.742Z,19.03
2019-04-26T20:26:48.680Z,18.97
2019-04-26T20:29:40.752Z,18.89
2019-04-26T20:32:34.794Z,18.76
2019-04-26T20:35:28.103Z,18.81
2019-04-26T20:38:17.699Z,18.92
2019-04-26T20:41:08.264Z,19.05
2019-04-26T20:44:07.430Z,19.04
2019-04-26T20:46:51.819Z,19.15
2019-04-26T20:49:49.654Z,19.02
2019-04-26T20:52:34.181Z,19.12
2019-04-26T20:55:30.270Z,18.99
2019-04-26T20:58:16.298Z,19.08
2019-04-26T21:01:11.739Z,19.01
2019-04-26T21:04:03.282Z,18.67
2019-04-26T21:06:53.705Z,18.67
2019-04-26T21:09:43.790Z,18.69
2019-04-26T21:12:34.065Z,18.62
2019-04-26T21:15:24.748Z,18.60
2019-04-26T21:18:15.224Z,18.65
2019-04-26T21:21:10.592Z,18.74
2019-04-26T21:23:57.963Z,18.79
2019-04-26T21:27:05.847Z,18.74
2019-04-26T21:30:22.026Z,18.69
2019-04-26T21:33:35.412Z,18.53
2019-04-26T21:37:03.427Z,18.40
2019-04-26T21:40:31.174Z,18.40
2019-04-26T21:43:21.509Z,18.52
2019-04-26T21:46:18.653Z,18.42
2019-04-26T21:49:03.917Z,18.37
2019-04-26T21:51:54.469Z,18.37
2019-04-26T21:54:48.399Z,17.98
2019-04-26T21:57:36.982Z,17.97
2019-04-26T22:00:45.194Z,18.11
2019-04-26T22:03:36.791Z,18.04
2019-04-26T22:06:28.649Z,17.93
2019-04-26T22:09:45.596Z,18.11
2019-04-26T22:12:35.449Z,17.92
2019-04-26T22:15:50.821Z,18.03
2019-04-26T22:18:56.516Z,18.15
2019-04-26T22:21:59.373Z,18.01
2019-04-26T22:24:48.919Z,17.82
2019-04-26T22:27:39.184Z,17.81
2019-04-26T22:30:29.727Z,17.85
2019-04-26T22:33:20.083Z,17.91
2019-04-26T22:36:10.352Z,18.06
2019-04-26T22:39:01.785Z,18.14
2019-04-26T22:41:53.763Z,18.03
2019-04-26T22:45:09.442Z,18.19
2019-04-26T22:48:06.722Z,17.96
2019-04-26T22:50:58.399Z,17.96
2019-04-26T22:53:49.826Z,18.05
2019-04-26T22:56:40.042Z,18.08
2019-04-26T22:59:30.353Z,17.99
2019-04-26T23:02:25.414Z,17.97
2019-04-26T23:05:13.619Z,18.02
2019-04-26T23:08:03.855Z,17.99
2019-04-26T23:10:55.538Z,18.09
2019-04-26T23:14:11.500Z,18.02
2019-04-26T23:17:16.875Z,18.10
2019-04-26T23:20:29.176Z,17.89
2019-04-26T23:23:16.998Z,17.74
2019-04-26T23:26:07.700Z,17.72
2019-04-26T23:28:58.494Z,17.69
2019-04-26T23:31:48.529Z,17.41
2019-04-26T23:34:39.523Z,17.42
2019-04-26T23:37:29.857Z,17.55
2019-04-26T23:40:20.614Z,17.32
2019-04-26T23:43:12.980Z,17.35
2019-04-26T23:46:03.341Z,17.44
2019-04-26T23:48:53.819Z,17.23
2019-04-26T23:51:45.861Z,17.32
2019-04-26T23:54:36.065Z,17.42
2019-04-26T23:57:27.496Z,17.49
